sensor_id;sensor_type;location;lat;lon;timestamp;P1;durP1;ratioP1;P2;durP2;ratioP2
57828;SDS011;43657;52.698;6.314;2023-08-06T00:00:55;39.97;;;36.13;;
57828;SDS011;43657;52.698;6.314;2023-08-06T00:03:21;35.90;;;32.58;;
57828;SDS011;43657;52.698;6.314;2023-08-06T00:05:47;35.72;;;32.55;;
57828;SDS011;43657;52.698;6.314;2023-08-06T00:08:13;37.55;;;33.80;;
57828;SDS011;43657;52.698;6.314;2023-08-06T00:10:39;40.08;;;36.05;;
57828;SDS011;43657;52.698;6.314;2023-08-06T00:13:06;39.45;;;35.65;;
57828;SDS011;43657;52.698;6.314;2023-08-06T00:15:32;38.85;;;35.03;;
57828;SDS011;43657;52.698;6.314;2023-08-06T00:17:58;37.55;;;33.78;;
57828;SDS011;43657;52.698;6.314;2023-08-06T00:20:23;37.50;;;33.85;;
57828;SDS011;43657;52.698;6.314;2023-08-06T00:22:49;37.30;;;33.75;;
57828;SDS011;43657;52.698;6.314;2023-08-06T00:25:15;37.67;;;33.90;;
57828;SDS011;43657;52.698;6.314;2023-08-06T00:27:41;34.03;;;30.83;;
57828;SDS011;43657;52.698;6.314;2023-08-06T00:30:07;35.97;;;32.63;;
57828;SDS011;43657;52.698;6.314;2023-08-06T00:32:33;35.17;;;31.88;;
57828;SDS011;43657;52.698;6.314;2023-08-06T00:34:59;35.65;;;32.05;;
57828;SDS011;43657;52.698;6.314;2023-08-06T00:37:25;35.03;;;31.45;;
57828;SDS011;43657;52.698;6.314;2023-08-06T00:39:51;31.13;;;28.23;;
57828;SDS011;43657;52.698;6.314;2023-08-06T00:42:17;33.20;;;29.90;;
57828;SDS011;43657;52.698;6.314;2023-08-06T00:44:45;34.83;;;31.45;;
57828;SDS011;43657;52.698;6.314;2023-08-06T00:47:11;32.83;;;29.83;;
57828;SDS011;43657;52.698;6.314;2023-08-06T00:49:37;33.58;;;30.27;;
57828;SDS011;43657;52.698;6.314;2023-08-06T00:52:04;35.22;;;31.80;;
57828;SDS011;43657;52.698;6.314;2023-08-06T00:54:31;34.42;;;31.42;;
57828;SDS011;43657;52.698;6.314;2023-08-06T00:56:59;34.60;;;31.30;;
57828;SDS011;43657;52.698;6.314;2023-08-06T00:59:26;35.17;;;31.52;;
57828;SDS011;43657;52.698;6.314;2023-08-06T01:01:55;34.63;;;31.33;;
57828;SDS011;43657;52.698;6.314;2023-08-06T01:04:22;34.95;;;31.50;;
57828;SDS011;43657;52.698;6.314;2023-08-06T01:06:48;34.95;;;31.45;;
57828;SDS011;43657;52.698;6.314;2023-08-06T01:15:10;35.08;;;31.67;;
57828;SDS011;43657;52.698;6.314;2023-08-06T01:17:42;37.88;;;33.85;;
57828;SDS011;43657;52.698;6.314;2023-08-06T01:20:10;35.60;;;31.95;;
57828;SDS011;43657;52.698;6.314;2023-08-06T01:22:36;35.05;;;31.52;;
57828;SDS011;43657;52.698;6.314;2023-08-06T01:25:01;31.80;;;28.95;;
57828;SDS011;43657;52.698;6.314;2023-08-06T01:30:28;36.67;;;32.72;;
57828;SDS011;43657;52.698;6.314;2023-08-06T01:33:01;33.25;;;30.08;;
57828;SDS011;43657;52.698;6.314;2023-08-06T01:35:29;31.55;;;28.63;;
57828;SDS011;43657;52.698;6.314;2023-08-06T01:37:55;34.50;;;31.10;;
57828;SDS011;43657;52.698;6.314;2023-08-06T01:40:21;32.17;;;28.77;;
57828;SDS011;43657;52.698;6.314;2023-08-06T01:42:47;33.03;;;29.88;;
57828;SDS011;43657;52.698;6.314;2023-08-06T01:45:12;31.88;;;28.63;;
57828;SDS011;43657;52.698;6.314;2023-08-06T01:47:39;32.92;;;29.80;;
57828;SDS011;43657;52.698;6.314;2023-08-06T01:50:04;32.88;;;29.77;;
57828;SDS011;43657;52.698;6.314;2023-08-06T01:52:30;34.22;;;30.88;;
57828;SDS011;43657;52.698;6.314;2023-08-06T01:54:56;34.63;;;31.42;;
57828;SDS011;43657;52.698;6.314;2023-08-06T01:57:22;37.35;;;33.35;;
57828;SDS011;43657;52.698;6.314;2023-08-06T01:59:47;33.30;;;30.10;;
57828;SDS011;43657;52.698;6.314;2023-08-06T02:02:13;37.95;;;34.10;;
57828;SDS011;43657;52.698;6.314;2023-08-06T02:04:39;33.85;;;30.65;;
57828;SDS011;43657;52.698;6.314;2023-08-06T02:07:04;36.42;;;32.90;;
57828;SDS011;43657;52.698;6.314;2023-08-06T02:09:30;37.63;;;33.63;;
57828;SDS011;43657;52.698;6.314;2023-08-06T02:11:56;43.70;;;37.05;;
57828;SDS011;43657;52.698;6.314;2023-08-06T02:14:21;35.67;;;32.17;;
57828;SDS011;43657;52.698;6.314;2023-08-06T02:16:47;38.35;;;34.55;;
57828;SDS011;43657;52.698;6.314;2023-08-06T02:19:13;39.28;;;35.28;;
57828;SDS011;43657;52.698;6.314;2023-08-06T02:21:39;39.45;;;35.72;;
57828;SDS011;43657;52.698;6.314;2023-08-06T02:24:04;41.70;;;37.28;;
57828;SDS011;43657;52.698;6.314;2023-08-06T02:26:30;39.55;;;35.65;;
57828;SDS011;43657;52.698;6.314;2023-08-06T02:28:56;40.58;;;36.60;;
57828;SDS011;43657;52.698;6.314;2023-08-06T02:31:21;42.97;;;38.38;;
57828;SDS011;43657;52.698;6.314;2023-08-06T02:33:47;44.55;;;39.92;;
57828;SDS011;43657;52.698;6.314;2023-08-06T02:36:13;51.05;;;40.58;;
57828;SDS011;43657;52.698;6.314;2023-08-06T02:38:38;42.92;;;38.63;;
57828;SDS011;43657;52.698;6.314;2023-08-06T02:41:04;50.67;;;41.40;;
57828;SDS011;43657;52.698;6.314;2023-08-06T02:43:30;44.10;;;39.47;;
57828;SDS011;43657;52.698;6.314;2023-08-06T02:45:56;42.05;;;37.45;;
57828;SDS011;43657;52.698;6.314;2023-08-06T02:48:25;41.15;;;36.95;;
57828;SDS011;43657;52.698;6.314;2023-08-06T02:50:51;48.10;;;40.90;;
57828;SDS011;43657;52.698;6.314;2023-08-06T02:53:17;71.97;;;46.25;;
57828;SDS011;43657;52.698;6.314;2023-08-06T02:55:46;55.83;;;42.20;;
57828;SDS011;43657;52.698;6.314;2023-08-06T02:58:13;75.65;;;47.25;;
57828;SDS011;43657;52.698;6.314;2023-08-06T03:00:39;74.55;;;48.75;;
57828;SDS011;43657;52.698;6.314;2023-08-06T03:03:05;41.28;;;37.03;;
57828;SDS011;43657;52.698;6.314;2023-08-06T03:05:31;44.33;;;39.70;;
57828;SDS011;43657;52.698;6.314;2023-08-06T03:07:56;43.70;;;39.33;;
57828;SDS011;43657;52.698;6.314;2023-08-06T03:10:22;73.47;;;47.00;;
57828;SDS011;43657;52.698;6.314;2023-08-06T03:12:48;46.58;;;40.30;;
57828;SDS011;43657;52.698;6.314;2023-08-06T03:15:13;41.70;;;37.47;;
57828;SDS011;43657;52.698;6.314;2023-08-06T03:17:39;41.08;;;36.88;;
57828;SDS011;43657;52.698;6.314;2023-08-06T03:20:05;41.60;;;37.50;;
57828;SDS011;43657;52.698;6.314;2023-08-06T03:22:31;43.45;;;38.88;;
57828;SDS011;43657;52.698;6.314;2023-08-06T03:24:57;39.55;;;35.50;;
57828;SDS011;43657;52.698;6.314;2023-08-06T03:27:22;40.83;;;36.55;;
57828;SDS011;43657;52.698;6.314;2023-08-06T03:29:49;38.80;;;34.85;;
57828;SDS011;43657;52.698;6.314;2023-08-06T03:32:15;42.78;;;37.30;;
57828;SDS011;43657;52.698;6.314;2023-08-06T03:34:41;39.95;;;35.60;;
57828;SDS011;43657;52.698;6.314;2023-08-06T03:37:07;60.45;;;44.08;;
57828;SDS011;43657;52.698;6.314;2023-08-06T03:39:32;38.63;;;34.83;;
57828;SDS011;43657;52.698;6.314;2023-08-06T03:41:58;36.75;;;33.22;;
57828;SDS011;43657;52.698;6.314;2023-08-06T03:44:24;38.08;;;34.15;;
57828;SDS011;43657;52.698;6.314;2023-08-06T03:46:49;35.58;;;32.17;;
57828;SDS011;43657;52.698;6.314;2023-08-06T03:49:15;37.67;;;33.72;;
57828;SDS011;43657;52.698;6.314;2023-08-06T03:51:41;35.40;;;31.75;;
57828;SDS011;43657;52.698;6.314;2023-08-06T03:54:06;35.70;;;32.20;;
57828;SDS011;43657;52.698;6.314;2023-08-06T03:56:32;41.95;;;35.40;;
57828;SDS011;43657;52.698;6.314;2023-08-06T03:58:57;35.83;;;32.25;;
57828;SDS011;43657;52.698;6.314;2023-08-06T04:01:23;36.22;;;32.75;;
57828;SDS011;43657;52.698;6.314;2023-08-06T04:03:49;43.38;;;35.08;;
57828;SDS011;43657;52.698;6.314;2023-08-06T04:06:14;44.00;;;37.17;;
57828;SDS011;43657;52.698;6.314;2023-08-06T04:08:40;35.63;;;32.08;;
57828;SDS011;43657;52.698;6.314;2023-08-06T04:11:06;40.97;;;36.67;;
57828;SDS011;43657;52.698;6.314;2023-08-06T04:13:33;40.90;;;34.42;;
57828;SDS011;43657;52.698;6.314;2023-08-06T04:16:02;67.28;;;43.33;;
57828;SDS011;43657;52.698;6.314;2023-08-06T04:18:28;50.75;;;38.60;;
57828;SDS011;43657;52.698;6.314;2023-08-06T04:20:54;36.15;;;32.55;;
57828;SDS011;43657;52.698;6.314;2023-08-06T04:23:20;37.63;;;33.85;;
57828;SDS011;43657;52.698;6.314;2023-08-06T04:25:46;40.22;;;35.28;;
57828;SDS011;43657;52.698;6.314;2023-08-06T04:28:12;35.50;;;31.98;;
57828;SDS011;43657;52.698;6.314;2023-08-06T04:30:38;35.67;;;32.17;;
57828;SDS011;43657;52.698;6.314;2023-08-06T04:33:04;35.35;;;31.80;;
57828;SDS011;43657;52.698;6.314;2023-08-06T04:35:29;33.95;;;30.65;;
57828;SDS011;43657;52.698;6.314;2023-08-06T04:37:55;34.60;;;31.20;;
57828;SDS011;43657;52.698;6.314;2023-08-06T04:40:20;34.72;;;31.27;;
57828;SDS011;43657;52.698;6.314;2023-08-06T04:42:46;38.42;;;34.28;;
57828;SDS011;43657;52.698;6.314;2023-08-06T04:45:12;39.00;;;34.13;;
57828;SDS011;43657;52.698;6.314;2023-08-06T04:47:37;35.50;;;32.05;;
57828;SDS011;43657;52.698;6.314;2023-08-06T04:50:03;36.05;;;32.28;;
57828;SDS011;43657;52.698;6.314;2023-08-06T04:52:29;37.65;;;33.85;;
57828;SDS011;43657;52.698;6.314;2023-08-06T04:54:57;53.88;;;40.60;;
57828;SDS011;43657;52.698;6.314;2023-08-06T04:57:23;35.75;;;32.15;;
57828;SDS011;43657;52.698;6.314;2023-08-06T04:59:49;55.35;;;40.78;;
57828;SDS011;43657;52.698;6.314;2023-08-06T05:02:15;37.30;;;33.60;;
57828;SDS011;43657;52.698;6.314;2023-08-06T05:04:41;37.63;;;34.03;;
57828;SDS011;43657;52.698;6.314;2023-08-06T05:07:06;38.35;;;34.33;;
57828;SDS011;43657;52.698;6.314;2023-08-06T05:09:32;38.50;;;34.38;;
57828;SDS011;43657;52.698;6.314;2023-08-06T05:12:03;38.47;;;34.40;;
57828;SDS011;43657;52.698;6.314;2023-08-06T05:14:29;64.38;;;43.85;;
57828;SDS011;43657;52.698;6.314;2023-08-06T05:16:55;57.95;;;43.47;;
57828;SDS011;43657;52.698;6.314;2023-08-06T05:19:20;35.92;;;32.35;;
57828;SDS011;43657;52.698;6.314;2023-08-06T05:21:48;38.25;;;34.35;;
57828;SDS011;43657;52.698;6.314;2023-08-06T05:24:17;34.97;;;31.58;;
57828;SDS011;43657;52.698;6.314;2023-08-06T05:26:42;34.97;;;31.48;;
57828;SDS011;43657;52.698;6.314;2023-08-06T05:29:11;32.63;;;29.65;;
57828;SDS011;43657;52.698;6.314;2023-08-06T05:31:37;35.90;;;32.15;;
57828;SDS011;43657;52.698;6.314;2023-08-06T05:34:02;31.75;;;28.75;;
57828;SDS011;43657;52.698;6.314;2023-08-06T05:36:28;46.20;;;37.45;;
57828;SDS011;43657;52.698;6.314;2023-08-06T05:38:54;33.10;;;29.80;;
57828;SDS011;43657;52.698;6.314;2023-08-06T05:41:19;32.20;;;29.10;;
57828;SDS011;43657;52.698;6.314;2023-08-06T05:43:45;30.55;;;27.52;;
57828;SDS011;43657;52.698;6.314;2023-08-06T05:46:11;31.40;;;28.42;;
57828;SDS011;43657;52.698;6.314;2023-08-06T05:48:36;34.65;;;31.15;;
57828;SDS011;43657;52.698;6.314;2023-08-06T05:51:02;32.85;;;29.65;;
57828;SDS011;43657;52.698;6.314;2023-08-06T05:53:28;31.75;;;28.45;;
57828;SDS011;43657;52.698;6.314;2023-08-06T05:55:57;29.95;;;27.10;;
57828;SDS011;43657;52.698;6.314;2023-08-06T05:58:23;30.83;;;28.10;;
57828;SDS011;43657;52.698;6.314;2023-08-06T06:00:51;38.55;;;34.40;;
57828;SDS011;43657;52.698;6.314;2023-08-06T06:03:17;36.28;;;32.75;;
57828;SDS011;43657;52.698;6.314;2023-08-06T06:05:48;30.50;;;27.48;;
57828;SDS011;43657;52.698;6.314;2023-08-06T06:08:14;31.70;;;28.80;;
57828;SDS011;43657;52.698;6.314;2023-08-06T06:10:42;42.83;;;37.00;;
57828;SDS011;43657;52.698;6.314;2023-08-06T06:13:30;38.45;;;34.30;;
57828;SDS011;43657;52.698;6.314;2023-08-06T06:16:02;49.58;;;37.92;;
57828;SDS011;43657;52.698;6.314;2023-08-06T06:18:28;30.60;;;28.00;;
57828;SDS011;43657;52.698;6.314;2023-08-06T06:20:58;43.15;;;36.72;;
57828;SDS011;43657;52.698;6.314;2023-08-06T06:23:33;38.22;;;34.58;;
57828;SDS011;43657;52.698;6.314;2023-08-06T06:26:01;30.45;;;27.88;;
57828;SDS011;43657;52.698;6.314;2023-08-06T06:28:27;28.33;;;26.02;;
57828;SDS011;43657;52.698;6.314;2023-08-06T06:30:53;29.08;;;26.52;;
57828;SDS011;43657;52.698;6.314;2023-08-06T06:33:27;45.30;;;36.42;;
57828;SDS011;43657;52.698;6.314;2023-08-06T06:35:59;31.58;;;28.77;;
57828;SDS011;43657;52.698;6.314;2023-08-06T06:38:25;32.97;;;29.98;;
57828;SDS011;43657;52.698;6.314;2023-08-06T06:41:16;37.25;;;33.55;;
57828;SDS011;43657;52.698;6.314;2023-08-06T06:43:42;34.78;;;31.38;;
57828;SDS011;43657;52.698;6.314;2023-08-06T06:46:08;42.03;;;37.85;;
57828;SDS011;43657;52.698;6.314;2023-08-06T06:49:33;30.38;;;27.98;;
57828;SDS011;43657;52.698;6.314;2023-08-06T06:52:01;32.08;;;29.17;;
57828;SDS011;43657;52.698;6.314;2023-08-06T07:01:04;38.45;;;34.47;;
57828;SDS011;43657;52.698;6.314;2023-08-06T07:14:29;33.80;;;30.90;;
57828;SDS011;43657;52.698;6.314;2023-08-06T07:24:42;41.67;;;37.85;;
57828;SDS011;43657;52.698;6.314;2023-08-06T07:28:07;35.90;;;32.92;;
57828;SDS011;43657;52.698;6.314;2023-08-06T07:51:24;39.85;;;36.45;;
57828;SDS011;43657;52.698;6.314;2023-08-06T07:53:59;39.42;;;36.20;;
57828;SDS011;43657;52.698;6.314;2023-08-06T07:57:09;36.97;;;33.97;;
57828;SDS011;43657;52.698;6.314;2023-08-06T07:59:35;31.08;;;28.77;;
57828;SDS011;43657;52.698;6.314;2023-08-06T08:02:01;31.17;;;28.77;;
57828;SDS011;43657;52.698;6.314;2023-08-06T08:04:26;38.00;;;34.78;;
57828;SDS011;43657;52.698;6.314;2023-08-06T08:10:12;30.55;;;28.23;;
57828;SDS011;43657;52.698;6.314;2023-08-06T08:13:19;30.63;;;28.33;;
57828;SDS011;43657;52.698;6.314;2023-08-06T08:16:25;27.67;;;25.60;;
57828;SDS011;43657;52.698;6.314;2023-08-06T08:18:50;29.65;;;27.45;;
57828;SDS011;43657;52.698;6.314;2023-08-06T08:21:21;32.45;;;30.05;;
57828;SDS011;43657;52.698;6.314;2023-08-06T08:24:08;35.60;;;32.70;;
57828;SDS011;43657;52.698;6.314;2023-08-06T08:26:49;28.58;;;26.25;;
57828;SDS011;43657;52.698;6.314;2023-08-06T08:29:21;26.85;;;24.83;;
57828;SDS011;43657;52.698;6.314;2023-08-06T08:31:50;27.67;;;25.67;;
57828;SDS011;43657;52.698;6.314;2023-08-06T08:34:19;32.47;;;29.90;;
57828;SDS011;43657;52.698;6.314;2023-08-06T08:39:49;31.83;;;29.33;;
57828;SDS011;43657;52.698;6.314;2023-08-06T08:42:36;27.17;;;25.08;;
57828;SDS011;43657;52.698;6.314;2023-08-06T08:45:50;28.35;;;26.08;;
57828;SDS011;43657;52.698;6.314;2023-08-06T08:51:11;25.38;;;23.55;;
57828;SDS011;43657;52.698;6.314;2023-08-06T09:01:37;27.60;;;25.40;;
57828;SDS011;43657;52.698;6.314;2023-08-06T09:04:21;29.23;;;26.92;;
57828;SDS011;43657;52.698;6.314;2023-08-06T09:07:16;26.92;;;24.92;;
57828;SDS011;43657;52.698;6.314;2023-08-06T09:10:02;24.85;;;23.13;;
57828;SDS011;43657;52.698;6.314;2023-08-06T09:19:43;21.00;;;19.40;;
57828;SDS011;43657;52.698;6.314;2023-08-06T09:22:21;18.13;;;16.85;;
57828;SDS011;43657;52.698;6.314;2023-08-06T09:25:38;19.95;;;18.63;;
57828;SDS011;43657;52.698;6.314;2023-08-06T09:28:12;20.73;;;19.33;;
57828;SDS011;43657;52.698;6.314;2023-08-06T09:30:54;20.80;;;19.40;;
57828;SDS011;43657;52.698;6.314;2023-08-06T09:33:45;23.17;;;21.42;;
57828;SDS011;43657;52.698;6.314;2023-08-06T09:36:39;17.90;;;16.50;;
57828;SDS011;43657;52.698;6.314;2023-08-06T09:43:02;15.60;;;14.40;;
57828;SDS011;43657;52.698;6.314;2023-08-06T09:45:58;18.42;;;17.13;;
57828;SDS011;43657;52.698;6.314;2023-08-06T09:49:00;18.40;;;17.10;;
57828;SDS011;43657;52.698;6.314;2023-08-06T09:51:42;14.00;;;13.00;;
57828;SDS011;43657;52.698;6.314;2023-08-06T09:54:51;15.55;;;14.45;;
57828;SDS011;43657;52.698;6.314;2023-08-06T09:57:29;13.80;;;12.82;;
57828;SDS011;43657;52.698;6.314;2023-08-06T10:00:29;13.80;;;12.85;;
57828;SDS011;43657;52.698;6.314;2023-08-06T10:03:24;14.57;;;13.57;;
57828;SDS011;43657;52.698;6.314;2023-08-06T10:06:33;14.35;;;13.25;;
57828;SDS011;43657;52.698;6.314;2023-08-06T10:13:05;10.88;;;10.02;;
57828;SDS011;43657;52.698;6.314;2023-08-06T10:20:09;9.75;;;8.85;;
57828;SDS011;43657;52.698;6.314;2023-08-06T10:22:36;8.10;;;7.50;;
57828;SDS011;43657;52.698;6.314;2023-08-06T10:25:02;8.98;;;8.27;;
57828;SDS011;43657;52.698;6.314;2023-08-06T10:32:49;9.57;;;8.88;;
57828;SDS011;43657;52.698;6.314;2023-08-06T10:38:04;7.60;;;6.95;;
57828;SDS011;43657;52.698;6.314;2023-08-06T10:41:00;8.13;;;7.47;;
57828;SDS011;43657;52.698;6.314;2023-08-06T10:43:34;7.53;;;6.82;;
57828;SDS011;43657;52.698;6.314;2023-08-06T10:46:03;7.47;;;6.85;;
57828;SDS011;43657;52.698;6.314;2023-08-06T10:48:35;7.65;;;6.95;;
57828;SDS011;43657;52.698;6.314;2023-08-06T10:51:02;8.10;;;7.40;;
57828;SDS011;43657;52.698;6.314;2023-08-06T10:53:30;6.65;;;6.15;;
57828;SDS011;43657;52.698;6.314;2023-08-06T10:55:55;7.00;;;6.40;;
57828;SDS011;43657;52.698;6.314;2023-08-06T10:58:21;6.47;;;5.50;;
57828;SDS011;43657;52.698;6.314;2023-08-06T11:00:48;5.68;;;5.18;;
57828;SDS011;43657;52.698;6.314;2023-08-06T11:03:14;5.75;;;5.35;;
57828;SDS011;43657;52.698;6.314;2023-08-06T11:05:40;6.45;;;5.90;;
57828;SDS011;43657;52.698;6.314;2023-08-06T11:08:05;6.38;;;5.70;;
57828;SDS011;43657;52.698;6.314;2023-08-06T11:10:34;6.03;;;5.43;;
57828;SDS011;43657;52.698;6.314;2023-08-06T11:13:03;6.25;;;5.65;;
57828;SDS011;43657;52.698;6.314;2023-08-06T11:15:29;5.47;;;5.00;;
57828;SDS011;43657;52.698;6.314;2023-08-06T11:17:56;5.40;;;4.90;;
57828;SDS011;43657;52.698;6.314;2023-08-06T11:20:21;5.40;;;5.00;;
57828;SDS011;43657;52.698;6.314;2023-08-06T11:22:49;5.18;;;4.55;;
57828;SDS011;43657;52.698;6.314;2023-08-06T11:25:15;4.60;;;4.20;;
57828;SDS011;43657;52.698;6.314;2023-08-06T11:27:41;4.47;;;4.10;;
57828;SDS011;43657;52.698;6.314;2023-08-06T11:30:07;4.60;;;4.15;;
57828;SDS011;43657;52.698;6.314;2023-08-06T11:32:44;4.38;;;3.97;;
57828;SDS011;43657;52.698;6.314;2023-08-06T11:35:11;5.40;;;4.15;;
57828;SDS011;43657;52.698;6.314;2023-08-06T11:37:38;5.10;;;4.70;;
57828;SDS011;43657;52.698;6.314;2023-08-06T11:40:09;5.32;;;3.80;;
57828;SDS011;43657;52.698;6.314;2023-08-06T11:42:36;3.38;;;3.08;;
57828;SDS011;43657;52.698;6.314;2023-08-06T11:45:02;4.22;;;3.30;;
57828;SDS011;43657;52.698;6.314;2023-08-06T11:47:29;5.30;;;3.20;;
57828;SDS011;43657;52.698;6.314;2023-08-06T11:49:55;5.55;;;3.60;;
57828;SDS011;43657;52.698;6.314;2023-08-06T11:52:22;4.40;;;3.15;;
57828;SDS011;43657;52.698;6.314;2023-08-06T11:55:02;6.30;;;3.45;;
57828;SDS011;43657;52.698;6.314;2023-08-06T11:57:33;3.72;;;3.22;;
57828;SDS011;43657;52.698;6.314;2023-08-06T12:00:06;5.75;;;5.25;;
57828;SDS011;43657;52.698;6.314;2023-08-06T12:02:34;5.68;;;5.20;;
57828;SDS011;43657;52.698;6.314;2023-08-06T12:07:37;5.65;;;4.90;;
57828;SDS011;43657;52.698;6.314;2023-08-06T12:10:04;4.78;;;4.35;;
57828;SDS011;43657;52.698;6.314;2023-08-06T12:12:30;4.85;;;4.45;;
57828;SDS011;43657;52.698;6.314;2023-08-06T12:14:56;4.82;;;4.40;;
57828;SDS011;43657;52.698;6.314;2023-08-06T12:17:22;6.30;;;5.13;;
57828;SDS011;43657;52.698;6.314;2023-08-06T12:19:49;5.13;;;4.60;;
57828;SDS011;43657;52.698;6.314;2023-08-06T12:22:15;4.88;;;4.35;;
57828;SDS011;43657;52.698;6.314;2023-08-06T12:24:41;4.72;;;3.83;;
57828;SDS011;43657;52.698;6.314;2023-08-06T12:27:08;5.00;;;4.60;;
57828;SDS011;43657;52.698;6.314;2023-08-06T12:29:34;4.95;;;4.05;;
57828;SDS011;43657;52.698;6.314;2023-08-06T12:31:59;6.63;;;3.25;;
57828;SDS011;43657;52.698;6.314;2023-08-06T12:34:25;4.97;;;3.53;;
57828;SDS011;43657;52.698;6.314;2023-08-06T12:36:50;4.47;;;3.20;;
57828;SDS011;43657;52.698;6.314;2023-08-06T12:39:16;3.88;;;3.47;;
57828;SDS011;43657;52.698;6.314;2023-08-06T12:41:41;5.32;;;3.65;;
57828;SDS011;43657;52.698;6.314;2023-08-06T12:44:08;3.70;;;3.40;;
57828;SDS011;43657;52.698;6.314;2023-08-06T12:46:34;4.10;;;3.53;;
57828;SDS011;43657;52.698;6.314;2023-08-06T12:48:59;5.78;;;3.47;;
57828;SDS011;43657;52.698;6.314;2023-08-06T12:51:25;3.65;;;2.80;;
57828;SDS011;43657;52.698;6.314;2023-08-06T12:53:51;5.10;;;3.20;;
57828;SDS011;43657;52.698;6.314;2023-08-06T12:56:16;4.07;;;3.67;;
57828;SDS011;43657;52.698;6.314;2023-08-06T12:58:42;4.28;;;3.88;;
57828;SDS011;43657;52.698;6.314;2023-08-06T13:01:07;4.18;;;3.78;;
57828;SDS011;43657;52.698;6.314;2023-08-06T13:03:33;4.38;;;3.53;;
57828;SDS011;43657;52.698;6.314;2023-08-06T13:05:58;4.40;;;3.72;;
57828;SDS011;43657;52.698;6.314;2023-08-06T13:08:24;5.95;;;4.55;;
57828;SDS011;43657;52.698;6.314;2023-08-06T13:10:50;5.15;;;4.63;;
57828;SDS011;43657;52.698;6.314;2023-08-06T13:13:15;4.50;;;3.97;;
57828;SDS011;43657;52.698;6.314;2023-08-06T13:15:41;4.47;;;3.33;;
57828;SDS011;43657;52.698;6.314;2023-08-06T13:18:06;4.55;;;3.30;;
57828;SDS011;43657;52.698;6.314;2023-08-06T13:20:32;3.25;;;2.92;;
57828;SDS011;43657;52.698;6.314;2023-08-06T13:22:58;3.78;;;3.38;;
57828;SDS011;43657;52.698;6.314;2023-08-06T13:25:26;5.55;;;5.05;;
57828;SDS011;43657;52.698;6.314;2023-08-06T13:27:53;5.47;;;4.00;;
57828;SDS011;43657;52.698;6.314;2023-08-06T13:30:19;4.85;;;4.22;;
57828;SDS011;43657;52.698;6.314;2023-08-06T13:32:45;5.13;;;3.97;;
57828;SDS011;43657;52.698;6.314;2023-08-06T13:35:11;5.00;;;3.67;;
57828;SDS011;43657;52.698;6.314;2023-08-06T13:37:36;6.10;;;3.85;;
57828;SDS011;43657;52.698;6.314;2023-08-06T13:40:02;9.18;;;5.20;;
57828;SDS011;43657;52.698;6.314;2023-08-06T13:42:28;7.72;;;5.38;;
57828;SDS011;43657;52.698;6.314;2023-08-06T13:44:54;10.40;;;6.60;;
57828;SDS011;43657;52.698;6.314;2023-08-06T13:47:27;45.70;;;14.07;;
57828;SDS011;43657;52.698;6.314;2023-08-06T13:49:53;19.45;;;6.97;;
57828;SDS011;43657;52.698;6.314;2023-08-06T13:52:18;12.93;;;8.05;;
57828;SDS011;43657;52.698;6.314;2023-08-06T13:54:44;42.83;;;12.10;;
57828;SDS011;43657;52.698;6.314;2023-08-06T13:57:10;53.75;;;18.60;;
57828;SDS011;43657;52.698;6.314;2023-08-06T13:59:35;83.28;;;23.70;;
57828;SDS011;43657;52.698;6.314;2023-08-06T14:02:01;23.45;;;14.77;;
57828;SDS011;43657;52.698;6.314;2023-08-06T14:04:27;21.92;;;16.52;;
57828;SDS011;43657;52.698;6.314;2023-08-06T14:06:52;18.35;;;15.63;;
57828;SDS011;43657;52.698;6.314;2023-08-06T14:09:18;22.33;;;18.00;;
57828;SDS011;43657;52.698;6.314;2023-08-06T14:11:44;47.25;;;25.98;;
57828;SDS011;43657;52.698;6.314;2023-08-06T14:14:11;36.72;;;26.20;;
57828;SDS011;43657;52.698;6.314;2023-08-06T14:16:36;24.23;;;21.75;;
57828;SDS011;43657;52.698;6.314;2023-08-06T14:19:02;80.22;;;36.22;;
57828;SDS011;43657;52.698;6.314;2023-08-06T14:21:28;46.97;;;29.38;;
57828;SDS011;43657;52.698;6.314;2023-08-06T14:23:54;24.75;;;22.23;;
57828;SDS011;43657;52.698;6.314;2023-08-06T14:26:19;17.10;;;15.52;;
57828;SDS011;43657;52.698;6.314;2023-08-06T14:28:45;22.40;;;19.25;;
57828;SDS011;43657;52.698;6.314;2023-08-06T14:31:11;55.72;;;28.90;;
57828;SDS011;43657;52.698;6.314;2023-08-06T14:33:37;79.07;;;31.67;;
57828;SDS011;43657;52.698;6.314;2023-08-06T14:36:03;37.67;;;26.27;;
57828;SDS011;43657;52.698;6.314;2023-08-06T14:38:29;89.45;;;36.85;;
57828;SDS011;43657;52.698;6.314;2023-08-06T14:40:54;58.33;;;32.88;;
57828;SDS011;43657;52.698;6.314;2023-08-06T14:43:20;38.88;;;26.90;;
57828;SDS011;43657;52.698;6.314;2023-08-06T14:45:45;51.78;;;31.25;;
57828;SDS011;43657;52.698;6.314;2023-08-06T14:48:11;43.85;;;29.17;;
57828;SDS011;43657;52.698;6.314;2023-08-06T14:50:37;105.72;;;42.22;;
57828;SDS011;43657;52.698;6.314;2023-08-06T14:53:04;83.20;;;39.85;;
57828;SDS011;43657;52.698;6.314;2023-08-06T14:55:30;77.97;;;40.45;;
57828;SDS011;43657;52.698;6.314;2023-08-06T14:57:57;43.75;;;31.48;;
57828;SDS011;43657;52.698;6.314;2023-08-06T15:00:23;55.22;;;33.25;;
57828;SDS011;43657;52.698;6.314;2023-08-06T15:02:48;56.83;;;30.05;;
57828;SDS011;43657;52.698;6.314;2023-08-06T15:05:15;38.20;;;23.15;;
57828;SDS011;43657;52.698;6.314;2023-08-06T15:07:40;56.92;;;28.05;;
57828;SDS011;43657;52.698;6.314;2023-08-06T15:10:06;54.92;;;27.83;;
57828;SDS011;43657;52.698;6.314;2023-08-06T15:12:32;44.95;;;26.70;;
57828;SDS011;43657;52.698;6.314;2023-08-06T15:14:58;45.83;;;29.25;;
57828;SDS011;43657;52.698;6.314;2023-08-06T15:17:25;48.83;;;30.20;;
57828;SDS011;43657;52.698;6.314;2023-08-06T15:19:51;45.15;;;29.70;;
57828;SDS011;43657;52.698;6.314;2023-08-06T15:22:17;75.13;;;34.42;;
57828;SDS011;43657;52.698;6.314;2023-08-06T15:24:43;55.55;;;30.10;;
57828;SDS011;43657;52.698;6.314;2023-08-06T15:27:09;97.72;;;39.38;;
57828;SDS011;43657;52.698;6.314;2023-08-06T15:29:35;40.40;;;28.73;;
57828;SDS011;43657;52.698;6.314;2023-08-06T15:32:00;64.43;;;34.90;;
57828;SDS011;43657;52.698;6.314;2023-08-06T15:34:26;112.45;;;39.83;;
57828;SDS011;43657;52.698;6.314;2023-08-06T15:36:52;126.20;;;42.35;;
57828;SDS011;43657;52.698;6.314;2023-08-06T15:39:17;36.80;;;29.23;;
57828;SDS011;43657;52.698;6.314;2023-08-06T15:41:43;39.75;;;28.10;;
57828;SDS011;43657;52.698;6.314;2023-08-06T15:44:08;89.65;;;37.67;;
57828;SDS011;43657;52.698;6.314;2023-08-06T15:46:34;47.85;;;32.17;;
57828;SDS011;43657;52.698;6.314;2023-08-06T15:49:01;41.00;;;31.17;;
57828;SDS011;43657;52.698;6.314;2023-08-06T15:51:27;30.15;;;23.02;;
57828;SDS011;43657;52.698;6.314;2023-08-06T15:53:53;57.17;;;32.25;;
57828;SDS011;43657;52.698;6.314;2023-08-06T15:56:18;22.88;;;19.85;;
57828;SDS011;43657;52.698;6.314;2023-08-06T15:58:44;44.33;;;28.67;;
57828;SDS011;43657;52.698;6.314;2023-08-06T16:01:09;19.23;;;17.35;;
57828;SDS011;43657;52.698;6.314;2023-08-06T16:03:37;23.70;;;18.98;;
57828;SDS011;43657;52.698;6.314;2023-08-06T16:06:04;32.25;;;22.80;;
57828;SDS011;43657;52.698;6.314;2023-08-06T16:08:30;18.85;;;16.92;;
57828;SDS011;43657;52.698;6.314;2023-08-06T16:10:56;14.35;;;13.00;;
57828;SDS011;43657;52.698;6.314;2023-08-06T16:13:22;17.13;;;15.43;;
57828;SDS011;43657;52.698;6.314;2023-08-06T16:15:47;19.63;;;16.42;;
57828;SDS011;43657;52.698;6.314;2023-08-06T16:18:14;21.33;;;17.42;;
57828;SDS011;43657;52.698;6.314;2023-08-06T16:20:43;31.63;;;21.77;;